Time,TemperatureF,DewpointF,PressureIn,WindDirection,WindDirectionDegrees,WindSpeedMPH,WindSpeedGustMPH,Humidity,HourlyPrecipIn,Conditions,Clouds,dailyrainin,SolarRadiationWatts/m^2,SoftwareType,DateUTC
2013-02-01 00:01:00,56.0,31.0,-100.00,North,351,0.0,0.0,38,0.00,,,0.00,0.000000,,2013-02-01 08:01:00,
2013-02-01 00:11:00,56.0,31.0,-100.00,North,351,0.0,0.0,38,0.00,,,0.00,0.000000,,2013-02-01 08:11:00,
2013-02-01 00:42:00,56.0,29.0,-100.00,NNW,337,0.0,0.0,35,0.00,,,0.00,0.000000,,2013-02-01 08:42:00,
2013-02-01 00:52:00,56.0,29.0,-100.00,NNW,337,0.0,0.0,35,0.00,,,0.00,0.000000,,2013-02-01 08:52:00,
2013-02-01 01:01:00,56.0,29.0,-100.00,NNW,337,0.0,0.0,35,0.00,,,0.00,0.000000,,2013-02-01 09:01:00,
2013-02-01 01:11:00,56.0,29.0,-100.00,NNW,337,0.0,0.0,35,0.00,,,0.00,0.000000,,2013-02-01 09:11:00,
2013-02-01 01:32:00,53.0,26.0,-100.00,East,89,0.0,0.0,35,0.00,,,0.00,0.000000,,2013-02-01 09:32:00,
2013-02-01 01:42:00,53.0,26.0,-100.00,East,89,0.0,0.0,35,0.00,,,0.00,0.000000,,2013-02-01 09:42:00,
2013-02-01 01:52:00,53.0,26.0,-100.00,East,89,0.0,0.0,35,0.00,,,0.00,0.000000,,2013-02-01 09:52:00,
2013-02-01 02:01:00,53.0,26.0,-100.00,East,89,0.0,0.0,35,0.00,,,0.00,0.000000,,2013-02-01 10:01:00,
2013-02-01 02:11:00,53.0,26.0,-100.00,East,89,0.0,0.0,35,0.00,,,0.00,0.000000,,2013-02-01 10:11:00,
2013-02-01 02:32:00,50.0,29.0,-100.00,NW,317,0.0,0.0,45,0.00,,,0.00,0.000000,,2013-02-01 10:32:00,
2013-02-01 02:43:00,50.0,29.0,-100.00,NW,317,0.0,0.0,45,0.00,,,0.00,0.000000,,2013-02-01 10:43:00,
2013-02-01 02:53:00,50.0,29.0,-100.00,NW,317,0.0,0.0,45,0.00,,,0.00,0.000000,,2013-02-01 10:53:00,
2013-02-01 03:01:00,50.0,29.0,-100.00,NW,317,0.0,0.0,45,0.00,,,0.00,0.000000,,2013-02-01 11:01:00,
2013-02-01 03:11:00,50.0,29.0,-100.00,NW,317,0.0,0.0,45,0.00,,,0.00,0.000000,,2013-02-01 11:11:00,
2013-02-01 03:42:00,53.0,25.0,-100.00,SE,124,0.0,0.0,33,0.00,,,0.00,0.000000,,2013-02-01 11:42:00,
2013-02-01 03:53:00,53.0,25.0,-100.00,SE,124,0.0,0.0,33,0.00,,,0.00,0.000000,,2013-02-01 11:53:00,
2013-02-01 04:02:00,53.0,25.0,-100.00,SE,124,0.0,0.0,33,0.00,,,0.00,0.000000,,2013-02-01 12:02:00,
2013-02-01 04:12:00,53.0,25.0,-100.00,SE,124,0.0,0.0,33,0.00,,,0.00,0.000000,,2013-02-01 12:12:00,
2013-02-01 04:32:00,52.0,24.0,-100.00,ESE,122,0.0,0.0,33,0.00,,,0.00,0.000000,,2013-02-01 12:32:00,
2013-02-01 04:42:00,52.0,24.0,-100.00,ESE,122,0.0,0.0,33,0.00,,,0.00,0.000000,,2013-02-01 12:42:00,
2013-02-01 04:52:00,52.0,24.0,-100.00,ESE,122,0.0,0.0,33,0.00,,,0.00,0.000000,,2013-02-01 12:52:00,
2013-02-01 05:02:00,52.0,24.0,-100.00,ESE,122,0.0,0.0,33,0.00,,,0.00,0.000000,,2013-02-01 13:02:00,
2013-02-01 05:11:00,52.0,24.0,-100.00,ESE,122,0.0,0.0,33,0.00,,,0.00,0.000000,,2013-02-01 13:11:00,
2013-02-01 05:33:00,50.0,25.0,-100.00,NW,318,0.0,0.0,37,0.00,,,0.00,0.000000,,2013-02-01 13:33:00,
2013-02-01 05:42:00,50.0,25.0,-100.00,NW,318,0.0,0.0,37,0.00,,,0.00,0.000000,,2013-02-01 13:42:00,
2013-02-01 05:53:00,50.0,25.0,-100.00,NW,318,0.0,0.0,37,0.00,,,0.00,0.000000,,2013-02-01 13:53:00,
2013-02-01 06:03:00,50.0,25.0,-100.00,NW,318,0.0,0.0,37,0.00,,,0.00,0.000000,,2013-02-01 14:03:00,
2013-02-01 06:11:00,50.0,25.0,-100.00,NW,318,0.0,0.0,37,0.00,,,0.00,0.000000,,2013-02-01 14:11:00,
2013-02-01 06:32:00,52.0,24.0,-100.00,SE,124,0.0,0.0,33,0.00,,,0.00,0.000000,,2013-02-01 14:32:00,
2013-02-01 06:42:00,52.0,24.0,-100.00,SE,124,0.0,0.0,33,0.00,,,0.00,0.000000,,2013-02-01 14:42:00,
2013-02-01 06:52:00,52.0,24.0,-100.00,SE,124,0.0,0.0,33,0.00,,,0.00,0.000000,,2013-02-01 14:52:00,
2013-02-01 07:02:00,52.0,24.0,-100.00,SE,124,0.0,0.0,33,0.00,,,0.00,0.000000,,2013-02-01 15:02:00,
2013-02-01 07:11:00,52.0,24.0,-100.00,SE,124,0.0,0.0,33,0.00,,,0.00,0.000000,,2013-02-01 15:11:00,
2013-02-01 07:33:00,54.0,25.0,-100.00,SE,129,0.0,0.0,32,0.00,,,0.00,4.000000,,2013-02-01 15:33:00,
2013-02-01 07:42:00,54.0,25.0,-100.00,SE,129,0.0,0.0,32,0.00,,,0.00,4.000000,,2013-02-01 15:42:00,
2013-02-01 07:52:00,54.0,25.0,-100.00,SE,129,0.0,0.0,32,0.00,,,0.00,4.000000,,2013-02-01 15:52:00,
2013-02-01 08:02:00,54.0,25.0,-100.00,SE,129,0.0,0.0,32,0.00,,,0.00,4.000000,,2013-02-01 16:02:00,
2013-02-01 08:11:00,54.0,25.0,-100.00,SE,129,0.0,0.0,32,0.00,,,0.00,4.000000,,2013-02-01 16:11:00,
2013-02-01 08:33:00,55.0,25.0,-100.00,ESE,111,0.0,0.0,31,0.00,,,0.00,19.000000,,2013-02-01 16:33:00,
2013-02-01 08:43:00,55.0,25.0,-100.00,ESE,111,0.0,0.0,31,0.00,,,0.00,19.000000,,2013-02-01 16:43:00,
2013-02-01 08:52:00,55.0,25.0,-100.00,ESE,111,0.0,0.0,31,0.00,,,0.00,19.000000,,2013-02-01 16:52:00,
2013-02-01 09:02:00,55.0,25.0,-100.00,ESE,111,0.0,0.0,31,0.00,,,0.00,19.000000,,2013-02-01 17:02:00,
2013-02-01 09:11:00,55.0,25.0,-100.00,ESE,111,0.0,0.0,31,0.00,,,0.00,19.000000,,2013-02-01 17:11:00,
2013-02-01 09:32:00,69.0,29.0,-100.00,East,99,0.0,0.0,22,0.00,,,0.00,342.000000,,2013-02-01 17:32:00,
2013-02-01 09:42:00,69.0,29.0,-100.00,East,99,0.0,0.0,22,0.00,,,0.00,342.000000,,2013-02-01 17:42:00,
2013-02-01 09:53:00,69.0,29.0,-100.00,East,99,0.0,0.0,22,0.00,,,0.00,342.000000,,2013-02-01 17:53:00,
2013-02-01 10:02:00,69.0,29.0,-100.00,East,99,0.0,0.0,22,0.00,,,0.00,342.000000,,2013-02-01 18:02:00,
2013-02-01 10:32:00,71.0,34.0,-100.00,West,275,0.0,0.0,26,0.00,,,0.00,520.000000,,2013-02-01 18:32:00,
2013-02-01 10:42:00,71.0,34.0,-100.00,West,275,0.0,0.0,26,0.00,,,0.00,520.000000,,2013-02-01 18:42:00,
2013-02-01 10:53:00,71.0,34.0,-100.00,West,275,0.0,0.0,26,0.00,,,0.00,520.000000,,2013-02-01 18:53:00,
2013-02-01 11:02:00,71.0,34.0,-100.00,West,275,0.0,0.0,26,0.00,,,0.00,520.000000,,2013-02-01 19:02:00,
2013-02-01 11:42:00,74.0,32.0,-100.00,West,262,0.0,0.0,21,0.00,,,0.00,594.000000,,2013-02-01 19:42:00,
2013-02-01 11:52:00,74.0,32.0,-100.00,West,262,0.0,0.0,21,0.00,,,0.00,594.000000,,2013-02-01 19:52:00,
2013-02-01 12:02:00,74.0,32.0,-100.00,West,262,0.0,0.0,21,0.00,,,0.00,594.000000,,2013-02-01 20:02:00,
2013-02-01 12:11:00,74.0,32.0,-100.00,West,262,0.0,0.0,21,0.00,,,0.00,594.000000,,2013-02-01 20:11:00,
2013-02-01 12:42:00,75.0,30.0,-100.00,WSW,258,0.0,0.0,19,0.00,,,0.00,345.000000,,2013-02-01 20:42:00,
2013-02-01 12:52:00,75.0,30.0,-100.00,WSW,258,0.0,0.0,19,0.00,,,0.00,345.000000,,2013-02-01 20:52:00,
2013-02-01 13:01:00,75.0,30.0,-100.00,WSW,258,0.0,0.0,19,0.00,,,0.00,345.000000,,2013-02-01 21:01:00,
2013-02-01 13:11:00,75.0,30.0,-100.00,WSW,258,0.0,0.0,19,0.00,,,0.00,345.000000,,2013-02-01 21:11:00,
2013-02-01 13:32:00,76.0,28.0,-100.00,West,279,0.0,0.0,17,0.00,,,0.00,601.000000,,2013-02-01 21:32:00,
2013-02-01 13:42:00,76.0,28.0,-100.00,West,279,0.0,0.0,17,0.00,,,0.00,601.000000,,2013-02-01 21:42:00,
2013-02-01 13:52:00,76.0,28.0,-100.00,West,279,0.0,0.0,17,0.00,,,0.00,601.000000,,2013-02-01 21:52:00,
2013-02-01 14:02:00,76.0,28.0,-100.00,West,279,0.0,0.0,17,0.00,,,0.00,601.000000,,2013-02-01 22:02:00,
2013-02-01 14:11:00,76.0,28.0,-100.00,West,279,0.0,0.0,17,0.00,,,0.00,601.000000,,2013-02-01 22:11:00,
2013-02-01 14:32:00,76.0,29.0,-100.00,South,169,0.0,0.0,18,0.00,,,0.00,472.000000,,2013-02-01 22:32:00,
2013-02-01 14:42:00,76.0,29.0,-100.00,South,169,0.0,0.0,18,0.00,,,0.00,472.000000,,2013-02-01 22:42:00,
2013-02-01 14:52:00,76.0,29.0,-100.00,South,169,0.0,0.0,18,0.00,,,0.00,472.000000,,2013-02-01 22:52:00,
2013-02-01 15:01:00,76.0,29.0,-100.00,South,169,0.0,0.0,18,0.00,,,0.00,472.000000,,2013-02-01 23:01:00,
2013-02-01 15:11:00,76.0,29.0,-100.00,South,169,0.0,0.0,18,0.00,,,0.00,472.000000,,2013-02-01 23:11:00,
2013-02-01 15:42:00,78.0,31.0,-100.00,West,262,0.0,0.0,18,0.00,,,0.00,349.000000,,2013-02-01 23:42:00,
2013-02-01 15:52:00,78.0,31.0,-100.00,West,262,0.0,0.0,18,0.00,,,0.00,349.000000,,2013-02-01 23:52:00,
2013-02-01 16:02:00,78.0,31.0,-100.00,West,262,0.0,0.0,18,0.00,,,0.00,349.000000,,2013-02-02 00:02:00,
2013-02-01 16:11:00,78.0,31.0,-100.00,West,262,0.0,0.0,18,0.00,,,0.00,349.000000,,2013-02-02 00:11:00,
2013-02-01 16:32:00,72.0,32.0,-100.00,WSW,241,0.0,0.0,23,0.00,,,0.00,203.000000,,2013-02-02 00:32:00,
2013-02-01 16:42:00,72.0,32.0,-100.00,WSW,241,0.0,0.0,23,0.00,,,0.00,203.000000,,2013-02-02 00:42:00,
2013-02-01 16:52:00,72.0,32.0,-100.00,WSW,241,0.0,0.0,23,0.00,,,0.00,203.000000,,2013-02-02 00:52:00,
2013-02-01 17:02:00,72.0,32.0,-100.00,WSW,241,0.0,0.0,23,0.00,,,0.00,203.000000,,2013-02-02 01:02:00,
2013-02-01 17:11:00,72.0,32.0,-100.00,WSW,241,0.0,0.0,23,0.00,,,0.00,203.000000,,2013-02-02 01:11:00,
2013-02-01 17:32:00,63.0,34.0,-100.00,ESE,117,0.0,0.0,34,0.00,,,0.00,44.000000,,2013-02-02 01:32:00,
2013-02-01 17:42:00,63.0,34.0,-100.00,ESE,117,0.0,0.0,34,0.00,,,0.00,44.000000,,2013-02-02 01:42:00,
2013-02-01 17:52:00,63.0,34.0,-100.00,ESE,117,0.0,0.0,34,0.00,,,0.00,44.000000,,2013-02-02 01:52:00,
2013-02-01 18:01:00,63.0,34.0,-100.00,ESE,117,0.0,0.0,34,0.00,,,0.00,44.000000,,2013-02-02 02:01:00,
2013-02-01 18:11:00,63.0,34.0,-100.00,ESE,117,0.0,0.0,34,0.00,,,0.00,44.000000,,2013-02-02 02:11:00,
2013-02-01 18:42:00,60.0,34.0,-100.00,North,355,0.0,0.0,37,0.00,,,0.00,0.000000,,2013-02-02 02:42:00,
2013-02-01 18:52:00,60.0,34.0,-100.00,North,355,0.0,0.0,37,0.00,,,0.00,0.000000,,2013-02-02 02:52:00,
2013-02-01 19:02:00,60.0,34.0,-100.00,North,355,0.0,0.0,37,0.00,,,0.00,0.000000,,2013-02-02 03:02:00,
2013-02-01 19:11:00,60.0,34.0,-100.00,North,355,0.0,0.0,37,0.00,,,0.00,0.000000,,2013-02-02 03:11:00,
2013-02-01 19:42:00,57.0,34.0,-100.00,SSE,163,0.0,0.0,41,0.00,,,0.00,0.000000,,2013-02-02 03:42:00,
2013-02-01 19:52:00,57.0,34.0,-100.00,SSE,163,0.0,0.0,41,0.00,,,0.00,0.000000,,2013-02-02 03:52:00,
2013-02-01 20:01:00,57.0,34.0,-100.00,SSE,163,0.0,0.0,41,0.00,,,0.00,0.000000,,2013-02-02 04:01:00,
2013-02-01 20:11:00,57.0,34.0,-100.00,SSE,163,0.0,0.0,41,0.00,,,0.00,0.000000,,2013-02-02 04:11:00,
2013-02-01 20:32:00,58.0,37.0,-100.00,North,354,0.0,0.0,45,0.00,,,0.00,0.000000,,2013-02-02 04:32:00,
2013-02-01 20:42:00,58.0,37.0,-100.00,North,354,0.0,0.0,45,0.00,,,0.00,0.000000,,2013-02-02 04:42:00,
2013-02-01 20:52:00,58.0,37.0,-100.00,North,354,0.0,0.0,45,0.00,,,0.00,0.000000,,2013-02-02 04:52:00,
2013-02-01 21:02:00,58.0,37.0,-100.00,North,354,0.0,0.0,45,0.00,,,0.00,0.000000,,2013-02-02 05:02:00,
2013-02-01 21:11:00,58.0,37.0,-100.00,North,354,0.0,0.0,45,0.00,,,0.00,0.000000,,2013-02-02 05:11:00,
2013-02-01 21:33:00,59.0,30.0,-100.00,SE,127,0.0,0.0,33,0.00,,,0.00,0.000000,,2013-02-02 05:33:00,
2013-02-01 21:42:00,59.0,30.0,-100.00,SE,127,0.0,0.0,33,0.00,,,0.00,0.000000,,2013-02-02 05:42:00,
2013-02-01 21:52:00,59.0,30.0,-100.00,SE,127,0.0,0.0,33,0.00,,,0.00,0.000000,,2013-02-02 05:52:00,
2013-02-01 22:02:00,59.0,30.0,-100.00,SE,127,0.0,0.0,33,0.00,,,0.00,0.000000,,2013-02-02 06:02:00,
2013-02-01 22:11:00,59.0,30.0,-100.00,SE,127,0.0,0.0,33,0.00,,,0.00,0.000000,,2013-02-02 06:11:00,
2013-02-01 22:32:00,57.0,31.0,-100.00,ENE,70,0.0,0.0,37,0.00,,,0.00,0.000000,,2013-02-02 06:32:00,
2013-02-01 22:42:00,57.0,31.0,-100.00,ENE,70,0.0,0.0,37,0.00,,,0.00,0.000000,,2013-02-02 06:42:00,
2013-02-01 22:52:00,57.0,31.0,-100.00,ENE,70,0.0,0.0,37,0.00,,,0.00,0.000000,,2013-02-02 06:52:00,
2013-02-01 23:02:00,57.0,31.0,-100.00,ENE,70,0.0,0.0,37,0.00,,,0.00,0.000000,,2013-02-02 07:02:00,
2013-02-01 23:11:00,57.0,31.0,-100.00,ENE,70,0.0,0.0,37,0.00,,,0.00,0.000000,,2013-02-02 07:11:00,
2013-02-01 23:32:00,54.0,29.0,-100.00,SW,219,0.0,0.0,38,0.00,,,-99.99,0.000000,,2013-02-02 07:32:00,
2013-02-01 23:42:00,54.0,29.0,-100.00,SW,219,0.0,0.0,38,0.00,,,-99.99,0.000000,,2013-02-02 07:42:00,
2013-02-01 23:52:00,54.0,29.0,-100.00,SW,219,0.0,0.0,38,0.00,,,-99.99,0.000000,,2013-02-02 07:52:00,